You are not logged in, Click here to log in
ICAO: WSSS Country: 新加坡樟宜
Latitude: 1.36442 Longitude: 103.992
Total Arrivals: 84 Total Departures: 81
Latest Arrival: SQ7867 (RCKH-WSSS)Chun Tang. Chiang Latest Departure: D3L16 (WSSS-VHHH)Chun Tang. Chiang
Scenery:
METAR : WSSS 182130Z 17005KT 9999 FEW020 BKN300 28/24 Q1011 NOSIG

新加坡樟宜機場SIN